LXGB

Gibraltar Airport

Gibraltar, Gibraltar
TAF LXGB 181046Z 1812/1821 09012KT 9999 FEW012 PROB30 TEMPO 1812/1815 12016KT 520002
Issued Valid From Valid To
Jun-18 @ 10:46 UTC
(2 hours ago)
Jun-18 @ 12:00 UTC
(an hour ago)
Jun-18 @ 21:00 UTC
(in 8 hours)
Jun-18 @ 12:00 to Jun-18 @ 21:00
TAF LXGB 181046Z 1812/1821 09012KT 9999 FEW012
Wind Visibility Clouds
90° at 12 knots 10,000+ meters
  • Few at 1,200' AGL
Temporary  (Probability 30%) Jun-18 @ 12:00 to Jun-18 @ 15:00
PROB30 TEMPO 1812/1815 12016KT 520002
Wind Turbulence
120° at 16 knots Occasional moderate clear air turbulence expected at the surface extending to 2,000' AGL
TAF LXGB 181046Z 1812/1821 09012KT 9999 FEW012 PROB30 TEMPO 1812/1815 12016KT 520002
Issued Jun-18 @ 10:46 UTC
(2 hours ago)
Valid From Jun-18 @ 12:00 UTC
(an hour ago)
Valid To Jun-18 @ 21:00 UTC
(in 8 hours)
Jun-18 @ 12:00 - Jun-18 @ 21:00
Wind Visibility
90° at 12 knots 10,000+ meters
Clouds
  • Few at 1,200' AGL
Probability 30% Temporary Jun-18 @ 12:00 - Jun-18 @ 15:00
Wind
120° at 16 knots